Time;durP1;ratioP1;P1;durP2;ratioP2;P2;SDS_P1;SDS_P2;PMS_P1;PMS_P2;Temp;Humidity;BMP_temperature;BMP_pressure;BME280_temperature;BME280_humidity;BME280_pressure;Samples;Min_cycle;Max_cycle;Signal;HPM_P1;HPM_P2
2022/01/09 00:00:34;;;;;;;;;3.00;3.00;;;;;;;;5067999;28;47625;-85
2022/01/09 00:02:59;;;;;;;;;1.00;1.00;;;;;;;;5068179;28;45296;-81
2022/01/09 00:05:25;;;;;;;;;0.67;0.67;;;;;;;;5068783;28;45379;-85
2022/01/09 00:07:50;;;;;;;;;2.25;1.00;;;;;;;;5067813;28;45128;-84
2022/01/09 00:10:16;;;;;;;;;1.75;1.50;;;;;;;;5070589;28;45843;-86
2022/01/09 00:12:42;;;;;;;;;2.25;1.25;;;;;;;;5069563;28;45020;-86
2022/01/09 00:15:07;;;;;;;;;2.00;2.00;;;;;;;;5068770;28;45122;-87
2022/01/09 00:17:33;;;;;;;;;3.00;2.00;;;;;;;;5069518;28;45369;-82
2022/01/09 00:19:58;;;;;;;;;1.00;1.00;;;;;;;;5067937;28;46943;-81
2022/01/09 00:22:41;;;;;;;;;2.67;2.67;;;;;;;;5070028;28;45043;-84
2022/01/09 00:25:06;;;;;;;;;2.50;2.00;;;;;;;;5049814;28;45071;-81
2022/01/09 00:27:31;;;;;;;;;2.00;1.00;;;;;;;;5048165;28;45167;-84
2022/01/09 00:29:57;;;;;;;;;2.00;2.00;;;;;;;;5065755;28;45827;-86
2022/01/09 00:32:22;;;;;;;;;1.00;1.00;;;;;;;;5069410;28;45170;-85
2022/01/09 00:34:47;;;;;;;;;2.67;2.00;;;;;;;;5067968;28;45064;-84
2022/01/09 00:37:12;;;;;;;;;1.00;1.00;;;;;;;;5069454;28;45285;-82
2022/01/09 00:39:37;;;;;;;;;3.00;3.00;;;;;;;;5069584;28;45951;-86
2022/01/09 00:42:03;;;;;;;;;1.00;1.00;;;;;;;;5069087;28;45178;-81
2022/01/09 00:44:28;;;;;;;;;2.75;1.75;;;;;;;;5069650;28;45070;-83
2022/01/09 00:46:56;;;;;;;;;1.67;0.67;;;;;;;;5069403;28;44979;-86
2022/01/09 00:49:21;;;;;;;;;1.00;1.00;;;;;;;;5069292;28;45290;-84
2022/01/09 00:51:47;;;;;;;;;3.00;2.67;;;;;;;;5067954;28;45117;-86
2022/01/09 00:54:12;;;;;;;;;2.00;1.00;;;;;;;;5070061;28;45012;-84
2022/01/09 00:56:37;;;;;;;;;3.00;2.00;;;;;;;;5068446;28;45255;-87
2022/01/09 00:59:02;;;;;;;;;0.33;0.00;;;;;;;;5069205;28;45652;-82
2022/01/09 01:01:27;;;;;;;;;2.67;0.67;;;;;;;;5069095;28;45103;-87
2022/01/09 01:03:53;;;;;;;;;1.00;0.00;;;;;;;;5069124;28;45431;-87
2022/01/09 01:06:18;;;;;;;;;1.67;1.00;;;;;;;;5069205;28;46279;-87
2022/01/09 01:08:43;;;;;;;;;1.33;0.00;;;;;;;;5068848;28;45340;-87
2022/01/09 01:11:09;;;;;;;;;1.00;1.00;;;;;;;;5068714;28;45130;-87
2022/01/09 01:13:35;;;;;;;;;1.25;1.25;;;;;;;;5068497;28;45143;-87
2022/01/09 01:16:00;;;;;;;;;1.00;1.00;;;;;;;;5065822;28;45114;-87
2022/01/09 01:18:25;;;;;;;;;1.00;0.33;;;;;;;;5068419;28;45525;-86
2022/01/09 01:20:50;;;;;;;;;1.00;1.00;;;;;;;;5068165;28;45219;-84
2022/01/09 01:23:15;;;;;;;;;1.00;0.00;;;;;;;;5067628;28;45166;-86
2022/01/09 01:25:44;;;;;;;;;2.00;1.00;;;;;;;;5068040;28;45121;-86
2022/01/09 01:28:09;;;;;;;;;0.00;0.00;;;;;;;;5065888;28;46979;-85
2022/01/09 01:30:35;;;;;;;;;1.67;0.67;;;;;;;;5067182;28;45261;-87
2022/01/09 01:33:00;;;;;;;;;2.00;1.00;;;;;;;;5067113;28;45177;-88
2022/01/09 01:35:25;;;;;;;;;2.00;1.00;;;;;;;;5066957;28;45052;-85
2022/01/09 01:37:51;;;;;;;;;2.00;1.00;;;;;;;;5067330;28;46223;-85
2022/01/09 01:40:17;;;;;;;;;0.33;0.33;;;;;;;;5067208;28;45186;-87
2022/01/09 01:42:42;;;;;;;;;2.75;2.00;;;;;;;;5067312;28;45298;-87
2022/01/09 01:45:09;;;;;;;;;3.00;2.00;;;;;;;;5067637;28;45243;-86
2022/01/09 01:47:34;;;;;;;;;1.75;1.00;;;;;;;;5068228;28;45318;-87
2022/01/09 01:49:59;;;;;;;;;1.00;1.00;;;;;;;;5068313;28;45095;-80
2022/01/09 01:52:34;;;;;;;;;0.00;0.00;;;;;;;;5068305;28;45160;-81
2022/01/09 01:54:59;;;;;;;;;0.25;0.25;;;;;;;;5066854;28;45176;-87
2022/01/09 01:57:24;;;;;;;;;1.00;1.00;;;;;;;;5065785;28;47633;-80
2022/01/09 01:59:49;;;;;;;;;0.00;0.00;;;;;;;;5066777;28;45212;-84
2022/01/09 02:02:15;;;;;;;;;2.00;1.00;;;;;;;;5068705;28;45365;-83
2022/01/09 02:04:40;;;;;;;;;0.75;0.50;;;;;;;;5068401;28;45119;-86
2022/01/09 02:07:07;;;;;;;;;0.67;0.00;;;;;;;;5067626;28;45361;-82
2022/01/09 02:09:33;;;;;;;;;0.75;0.00;;;;;;;;5067274;28;45459;-85
2022/01/09 02:11:58;;;;;;;;;0.00;0.00;;;;;;;;5068706;28;45065;-80
2022/01/09 02:14:23;;;;;;;;;1.00;1.00;;;;;;;;5066691;28;44917;-80
2022/01/09 02:16:50;;;;;;;;;0.00;0.00;;;;;;;;5067153;28;46306;-85
2022/01/09 02:19:16;;;;;;;;;1.75;0.75;;;;;;;;5067216;28;45370;-86
2022/01/09 02:21:42;;;;;;;;;0.50;0.00;;;;;;;;5067558;28;44952;-85
2022/01/09 02:24:08;;;;;;;;;1.25;1.00;;;;;;;;5066459;28;45288;-83
2022/01/09 02:26:33;;;;;;;;;0.00;0.00;;;;;;;;5065484;28;47704;-85
2022/01/09 02:28:58;;;;;;;;;0.00;0.00;;;;;;;;5066883;28;45227;-85
2022/01/09 02:31:24;;;;;;;;;0.00;0.00;;;;;;;;5066708;28;45051;-86
2022/01/09 02:33:49;;;;;;;;;0.75;0.75;;;;;;;;5067264;28;45231;-87
2022/01/09 02:36:14;;;;;;;;;0.00;0.00;;;;;;;;5066384;28;48039;-86
2022/01/09 02:38:39;;;;;;;;;1.00;0.00;;;;;;;;5066992;28;45096;-86
2022/01/09 02:41:05;;;;;;;;;0.33;0.33;;;;;;;;5067152;28;45071;-82
2022/01/09 02:43:30;;;;;;;;;1.00;0.00;;;;;;;;5065833;28;45023;-84
2022/01/09 02:48:31;;;;;;;;;0.00;0.00;;;;;;;;5066556;28;45174;-86
2022/01/09 02:51:03;;;;;;;;;0.00;0.00;;;;;;;;5069854;28;45263;-86
2022/01/09 02:53:33;;;;;;;;;0.25;0.25;;;;;;;;5071317;28;45224;-85
2022/01/09 02:55:58;;;;;;;;;0.00;0.00;;;;;;;;5069287;28;47957;-84
2022/01/09 02:58:23;;;;;;;;;0.00;0.00;;;;;;;;5070696;28;45290;-85
2022/01/09 03:00:49;;;;;;;;;0.00;0.00;;;;;;;;5070920;28;45207;-86
2022/01/09 03:03:14;;;;;;;;;0.00;0.00;;;;;;;;5070947;28;45130;-82
2022/01/09 03:05:40;;;;;;;;;0.00;0.00;;;;;;;;5068940;28;47612;-84
2022/01/09 03:08:05;;;;;;;;;0.00;0.00;;;;;;;;5069258;28;45334;-86
2022/01/09 03:10:30;;;;;;;;;1.00;0.00;;;;;;;;5071236;28;44933;-87
2022/01/09 03:12:56;;;;;;;;;0.00;0.00;;;;;;;;5069459;28;45310;-85
2022/01/09 03:15:21;;;;;;;;;0.00;0.00;;;;;;;;5070881;28;45478;-85
2022/01/09 03:17:46;;;;;;;;;0.33;0.00;;;;;;;;5070171;28;45357;-83
2022/01/09 03:20:16;;;;;;;;;0.00;0.00;;;;;;;;5068508;28;45541;-87
2022/01/09 03:22:41;;;;;;;;;1.00;0.50;;;;;;;;5068948;28;45143;-87
2022/01/09 03:25:07;;;;;;;;;0.50;0.00;;;;;;;;5070218;28;45497;-87
2022/01/09 03:27:32;;;;;;;;;0.00;0.00;;;;;;;;5069138;28;45199;-86
2022/01/09 03:29:59;;;;;;;;;0.00;0.00;;;;;;;;5070622;28;45107;-86
2022/01/09 03:32:24;;;;;;;;;0.50;0.50;;;;;;;;5069174;28;45174;-86
2022/01/09 03:34:49;;;;;;;;;0.00;0.00;;;;;;;;5069950;28;45361;-87
2022/01/09 03:37:14;;;;;;;;;0.67;0.67;;;;;;;;5070452;28;44943;-87
2022/01/09 03:39:40;;;;;;;;;0.00;0.00;;;;;;;;5069980;28;45203;-87
2022/01/09 03:42:05;;;;;;;;;2.00;1.00;;;;;;;;5071083;28;45060;-89
2022/01/09 03:44:31;;;;;;;;;0.00;0.00;;;;;;;;5070666;28;46010;-88
2022/01/09 03:46:56;;;;;;;;;1.25;1.00;;;;;;;;5068680;28;45173;-87
2022/01/09 03:49:21;;;;;;;;;0.00;0.00;;;;;;;;5070579;28;45031;-87
2022/01/09 03:51:50;;;;;;;;;0.75;0.50;;;;;;;;5069717;28;45144;-83
2022/01/09 03:54:21;;;;;;;;;2.00;2.00;;;;;;;;5070491;28;45558;-83
2022/01/09 03:56:46;;;;;;;;;0.75;0.00;;;;;;;;5068890;28;45324;-88
2022/01/09 03:59:11;;;;;;;;;2.00;1.75;;;;;;;;5069351;28;45054;-81
2022/01/09 04:01:37;;;;;;;;;1.33;1.00;;;;;;;;5068775;28;45389;-87
2022/01/09 04:04:02;;;;;;;;;0.33;0.33;;;;;;;;5069597;28;45324;-87
2022/01/09 04:06:27;;;;;;;;;2.00;1.00;;;;;;;;5069508;28;45100;-83
2022/01/09 04:08:53;;;;;;;;;0.67;0.00;;;;;;;;5068039;28;45144;-86
2022/01/09 04:11:23;;;;;;;;;2.00;1.00;;;;;;;;5068759;28;45235;-87
2022/01/09 04:13:49;;;;;;;;;1.00;0.00;;;;;;;;5070088;28;45568;-85
2022/01/09 04:16:14;;;;;;;;;1.00;1.00;;;;;;;;5069843;28;44984;-87
2022/01/09 04:18:39;;;;;;;;;0.00;0.00;;;;;;;;5068460;28;45075;-87
2022/01/09 04:21:04;;;;;;;;;2.00;0.00;;;;;;;;5069498;28;45051;-86
2022/01/09 04:23:29;;;;;;;;;0.33;0.33;;;;;;;;5068233;28;47388;-88
2022/01/09 04:25:55;;;;;;;;;0.00;0.00;;;;;;;;5069656;28;45003;-87
2022/01/09 04:28:20;;;;;;;;;0.25;0.00;;;;;;;;5068604;28;45033;-87
2022/01/09 04:30:45;;;;;;;;;0.00;0.00;;;;;;;;5069570;28;44994;-86
2022/01/09 04:33:10;;;;;;;;;0.00;0.00;;;;;;;;5067598;28;47547;-87
2022/01/09 04:35:36;;;;;;;;;1.33;1.00;;;;;;;;5069312;28;45081;-87
2022/01/09 04:38:01;;;;;;;;;0.00;0.00;;;;;;;;5068296;28;45533;-80
2022/01/09 04:40:27;;;;;;;;;0.00;0.00;;;;;;;;5069606;28;45152;-87
2022/01/09 04:42:56;;;;;;;;;1.33;0.00;;;;;;;;5069511;28;45596;-85
2022/01/09 04:45:23;;;;;;;;;0.75;0.00;;;;;;;;5069288;28;45017;-86
2022/01/09 04:47:49;;;;;;;;;0.50;0.50;;;;;;;;5069409;28;45124;-85
2022/01/09 04:50:20;;;;;;;;;1.00;0.00;;;;;;;;5067950;28;45441;-84
2022/01/09 04:52:46;;;;;;;;;0.00;0.00;;;;;;;;5066898;28;47095;-85
2022/01/09 04:55:11;;;;;;;;;0.25;0.00;;;;;;;;5069332;28;45257;-87
2022/01/09 04:57:36;;;;;;;;;0.67;0.00;;;;;;;;5069644;28;45130;-86
2022/01/09 05:00:03;;;;;;;;;1.00;0.00;;;;;;;;5067797;28;44934;-87
2022/01/09 05:02:28;;;;;;;;;0.00;0.00;;;;;;;;5067662;28;47370;-82
2022/01/09 05:04:54;;;;;;;;;1.00;1.00;;;;;;;;5069030;28;45027;-83
2022/01/09 05:07:19;;;;;;;;;2.00;0.00;;;;;;;;5066811;28;45095;-87
2022/01/09 05:09:44;;;;;;;;;0.00;0.00;;;;;;;;5067428;28;44924;-85
2022/01/09 05:12:09;;;;;;;;;0.00;0.00;;;;;;;;5068831;28;45504;-87
2022/01/09 05:14:35;;;;;;;;;0.00;0.00;;;;;;;;5066949;28;45162;-86
2022/01/09 05:17:00;;;;;;;;;0.00;0.00;;;;;;;;5069258;28;45390;-88
2022/01/09 05:19:28;;;;;;;;;0.33;0.33;;;;;;;;5067642;28;45006;-87
2022/01/09 05:21:54;;;;;;;;;0.75;0.00;;;;;;;;5066871;28;47980;-87
2022/01/09 05:24:19;;;;;;;;;0.00;0.00;;;;;;;;5067039;28;45464;-86
2022/01/09 05:26:45;;;;;;;;;0.00;0.00;;;;;;;;5068894;28;45055;-87
2022/01/09 05:29:10;;;;;;;;;1.00;1.00;;;;;;;;5067220;28;45561;-86
2022/01/09 05:31:36;;;;;;;;;0.75;0.00;;;;;;;;5066052;28;47641;-88
2022/01/09 05:34:01;;;;;;;;;1.00;0.00;;;;;;;;5067242;28;45196;-87
2022/01/09 05:36:26;;;;;;;;;3.00;1.00;;;;;;;;5068874;28;44999;-86
2022/01/09 05:38:51;;;;;;;;;2.00;2.00;;;;;;;;5066929;28;45092;-86
2022/01/09 05:41:16;;;;;;;;;2.00;1.00;;;;;;;;5067619;28;47085;-85
2022/01/09 05:43:42;;;;;;;;;0.00;0.00;;;;;;;;5067004;28;44986;-85
2022/01/09 05:46:07;;;;;;;;;0.00;0.00;;;;;;;;5066522;28;45453;-86
2022/01/09 05:48:32;;;;;;;;;1.00;1.00;;;;;;;;5068669;28;45046;-84
2022/01/09 05:50:57;;;;;;;;;0.00;0.00;;;;;;;;5067775;28;45173;-82
2022/01/09 05:53:23;;;;;;;;;1.25;1.25;;;;;;;;5066281;27;45198;-85
2022/01/09 05:55:48;;;;;;;;;0.33;0.00;;;;;;;;5068650;28;46123;-86
2022/01/09 05:58:13;;;;;;;;;1.00;1.00;;;;;;;;5068451;28;45148;-87
2022/01/09 06:00:38;;;;;;;;;1.00;1.00;;;;;;;;5066041;28;47958;-87
2022/01/09 06:03:04;;;;;;;;;2.00;2.00;;;;;;;;5067251;28;45111;-83
2022/01/09 06:05:29;;;;;;;;;1.00;0.00;;;;;;;;5066619;28;45060;-87
2022/01/09 06:07:54;;;;;;;;;0.00;0.00;;;;;;;;5067488;28;45132;-85
2022/01/09 06:10:19;;;;;;;;;1.00;0.00;;;;;;;;5067167;28;46196;-86
2022/01/09 06:12:45;;;;;;;;;1.00;1.00;;;;;;;;5065152;28;45366;-84
2022/01/09 06:15:10;;;;;;;;;3.00;1.00;;;;;;;;5068169;28;45197;-84
2022/01/09 06:17:36;;;;;;;;;2.00;0.75;;;;;;;;5068087;28;45149;-87
2022/01/09 06:20:02;;;;;;;;;1.00;1.00;;;;;;;;5066639;28;47736;-87
2022/01/09 06:22:27;;;;;;;;;0.50;0.00;;;;;;;;5067569;28;45399;-87
2022/01/09 06:24:53;;;;;;;;;1.00;1.00;;;;;;;;5068971;28;45039;-87
2022/01/09 06:27:18;;;;;;;;;1.00;0.00;;;;;;;;5071935;28;45057;-87
2022/01/09 06:29:43;;;;;;;;;0.00;0.00;;;;;;;;5069386;28;47073;-87
2022/01/09 06:32:08;;;;;;;;;0.00;0.00;;;;;;;;5072084;28;45111;-87
2022/01/09 06:34:34;;;;;;;;;0.00;0.00;;;;;;;;5070722;28;45251;-85
2022/01/09 06:36:59;;;;;;;;;1.00;1.00;;;;;;;;5069676;28;45313;-84
2022/01/09 06:39:24;;;;;;;;;0.67;0.67;;;;;;;;5071665;28;45660;-86
2022/01/09 06:41:49;;;;;;;;;2.33;0.33;;;;;;;;5070998;28;45213;-86
2022/01/09 06:44:15;;;;;;;;;2.00;1.00;;;;;;;;5071415;28;45184;-85
2022/01/09 06:46:40;;;;;;;;;0.25;0.00;;;;;;;;5071337;28;45015;-85
2022/01/09 06:49:05;;;;;;;;;1.00;0.00;;;;;;;;5071296;28;45729;-84
2022/01/09 06:51:31;;;;;;;;;1.67;0.67;;;;;;;;5070104;28;45227;-87
2022/01/09 06:53:56;;;;;;;;;1.00;1.00;;;;;;;;5071860;28;45239;-86
2022/01/09 06:56:21;;;;;;;;;1.00;1.00;;;;;;;;5071370;28;45434;-87
2022/01/09 06:58:46;;;;;;;;;1.00;0.00;;;;;;;;5070872;28;45269;-87
2022/01/09 07:01:11;;;;;;;;;0.67;0.00;;;;;;;;5071588;28;45351;-85
2022/01/09 07:03:37;;;;;;;;;2.00;1.00;;;;;;;;5071068;28;45056;-86
2022/01/09 07:06:02;;;;;;;;;0.67;0.67;;;;;;;;5070476;28;45062;-87
2022/01/09 07:08:28;;;;;;;;;1.00;0.00;;;;;;;;5070744;28;45914;-84
2022/01/09 07:10:54;;;;;;;;;1.00;0.00;;;;;;;;5070911;28;45245;-87
2022/01/09 07:13:19;;;;;;;;;1.50;1.00;;;;;;;;5071240;28;45226;-87
2022/01/09 07:15:44;;;;;;;;;0.00;0.00;;;;;;;;5070046;28;45051;-84
2022/01/09 07:18:09;;;;;;;;;0.00;0.00;;;;;;;;5071365;28;45978;-86
2022/01/09 07:20:35;;;;;;;;;0.33;0.33;;;;;;;;5069669;28;45182;-86
2022/01/09 07:23:00;;;;;;;;;1.00;1.00;;;;;;;;5070003;28;45147;-88
2022/01/09 07:25:25;;;;;;;;;0.00;0.00;;;;;;;;5071094;28;45248;-87
2022/01/09 07:27:50;;;;;;;;;0.00;0.00;;;;;;;;5069001;28;46290;-88
2022/01/09 07:30:16;;;;;;;;;1.00;1.00;;;;;;;;5068846;28;45109;-87
2022/01/09 07:32:41;;;;;;;;;0.33;0.00;;;;;;;;5070741;28;44848;-86
2022/01/09 07:35:06;;;;;;;;;0.00;0.00;;;;;;;;5068512;28;45447;-86
2022/01/09 07:37:32;;;;;;;;;1.00;1.00;;;;;;;;5070249;28;47123;-88
2022/01/09 07:39:58;;;;;;;;;2.00;2.00;;;;;;;;5070974;28;45301;-88
2022/01/09 07:42:23;;;;;;;;;3.75;1.00;;;;;;;;5070888;28;45193;-87
2022/01/09 07:44:48;;;;;;;;;1.33;1.00;;;;;;;;5069036;28;45139;-87
2022/01/09 07:47:13;;;;;;;;;3.00;3.00;;;;;;;;5070617;28;46012;-89
2022/01/09 07:49:38;;;;;;;;;3.00;3.00;;;;;;;;5068938;28;45595;-93
2022/01/09 07:52:04;;;;;;;;;1.00;0.00;;;;;;;;5068677;28;44973;-87
2022/01/09 07:54:29;;;;;;;;;0.25;0.25;;;;;;;;5069128;28;45246;-87
2022/01/09 07:56:54;;;;;;;;;3.00;0.33;;;;;;;;5070146;28;45995;-86
2022/01/09 07:59:19;;;;;;;;;2.67;2.00;;;;;;;;5069015;28;45342;-87
2022/01/09 08:01:45;;;;;;;;;2.00;2.00;;;;;;;;5068010;28;45252;-87
2022/01/09 08:04:10;;;;;;;;;4.33;3.33;;;;;;;;5069250;28;45007;-88
2022/01/09 08:06:35;;;;;;;;;10.00;8.67;;;;;;;;5067723;28;47171;-88
2022/01/09 08:09:01;;;;;;;;;11.00;9.33;;;;;;;;5070562;28;45161;-88
2022/01/09 08:11:26;;;;;;;;;9.25;8.25;;;;;;;;5069870;28;45837;-86
2022/01/09 08:13:51;;;;;;;;;1.33;0.67;;;;;;;;5068678;28;45169;-87
2022/01/09 08:16:16;;;;;;;;;1.67;1.67;;;;;;;;5069153;28;45670;-84
2022/01/09 08:18:42;;;;;;;;;2.00;2.00;;;;;;;;5069849;28;45044;-86
2022/01/09 08:21:07;;;;;;;;;1.67;1.00;;;;;;;;5070248;28;45205;-88
2022/01/09 08:23:32;;;;;;;;;1.67;1.33;;;;;;;;5070300;28;45283;-84
2022/01/09 08:25:57;;;;;;;;;2.67;1.00;;;;;;;;5069880;28;46173;-89
2022/01/09 08:28:22;;;;;;;;;0.00;0.00;;;;;;;;5069133;28;45145;-89
2022/01/09 08:30:48;;;;;;;;;2.00;1.00;;;;;;;;5069226;28;45244;-86
2022/01/09 08:33:13;;;;;;;;;2.00;2.00;;;;;;;;5070106;28;45074;-83
2022/01/09 08:35:38;;;;;;;;;1.00;1.00;;;;;;;;5069165;28;45217;-86
2022/01/09 08:38:06;;;;;;;;;3.00;1.00;;;;;;;;5068761;28;44997;-87
2022/01/09 08:40:31;;;;;;;;;0.00;0.00;;;;;;;;5069789;28;45101;-85
2022/01/09 08:42:57;;;;;;;;;1.00;1.00;;;;;;;;5069182;28;45577;-80
2022/01/09 08:45:23;;;;;;;;;1.00;0.33;;;;;;;;5069372;28;45624;-83
2022/01/09 08:47:49;;;;;;;;;1.00;1.00;;;;;;;;5069223;28;45505;-87
2022/01/09 08:50:14;;;;;;;;;0.00;0.00;;;;;;;;5069011;28;45284;-85
2022/01/09 08:52:40;;;;;;;;;1.00;1.00;;;;;;;;5069270;28;45122;-83
2022/01/09 08:55:06;;;;;;;;;0.25;0.25;;;;;;;;5069584;28;45695;-83
2022/01/09 08:57:31;;;;;;;;;1.00;0.00;;;;;;;;5069042;28;45101;-84
2022/01/09 08:59:56;;;;;;;;;1.33;1.33;;;;;;;;5069798;28;45000;-85
2022/01/09 09:02:21;;;;;;;;;2.00;2.00;;;;;;;;5069370;28;45102;-82
2022/01/09 09:04:46;;;;;;;;;6.00;4.00;;;;;;;;5065883;28;46165;-83
2022/01/09 09:07:12;;;;;;;;;1.67;1.33;;;;;;;;5068757;28;45216;-82
2022/01/09 09:09:38;;;;;;;;;2.50;2.00;;;;;;;;5067965;28;44996;-82
2022/01/09 09:12:04;;;;;;;;;2.00;1.00;;;;;;;;5067613;28;44843;-85
2022/01/09 09:14:29;;;;;;;;;1.75;1.75;;;;;;;;5066908;28;45632;-84
2022/01/09 09:16:57;;;;;;;;;2.00;2.00;;;;;;;;5068882;28;45271;-88
2022/01/09 09:19:23;;;;;;;;;26.50;24.00;;;;;;;;5053223;28;46607;-86
2022/01/09 09:21:48;;;;;;;;;6.25;5.25;;;;;;;;5055790;28;45075;-87
2022/01/09 09:24:14;;;;;;;;;4.33;4.33;;;;;;;;5063411;28;45891;-88
2022/01/09 09:26:39;;;;;;;;;6.00;6.00;;;;;;;;5066196;28;45509;-86
2022/01/09 09:29:05;;;;;;;;;7.75;6.75;;;;;;;;5068149;28;45565;-82
2022/01/09 09:31:31;;;;;;;;;7.00;5.00;;;;;;;;5070541;28;45219;-81
2022/01/09 09:33:56;;;;;;;;;3.00;3.00;;;;;;;;5071775;28;45345;-89
2022/01/09 09:36:23;;;;;;;;;7.00;6.00;;;;;;;;5070311;28;45063;-88
2022/01/09 09:38:48;;;;;;;;;3.50;2.50;;;;;;;;5070330;28;45195;-87
2022/01/09 09:41:13;;;;;;;;;2.00;2.00;;;;;;;;5072569;28;45207;-87
2022/01/09 09:43:38;;;;;;;;;4.33;3.00;;;;;;;;5071359;28;45287;-83
2022/01/09 09:46:03;;;;;;;;;3.00;2.00;;;;;;;;5069292;28;45122;-87
2022/01/09 09:48:29;;;;;;;;;3.00;2.67;;;;;;;;5068546;28;45630;-87
2022/01/09 09:50:54;;;;;;;;;2.67;2.00;;;;;;;;5067310;28;45471;-87
2022/01/09 09:53:20;;;;;;;;;3.00;3.00;;;;;;;;5072056;28;46006;-87
2022/01/09 09:55:48;;;;;;;;;3.00;2.00;;;;;;;;5059060;28;45412;-80
2022/01/09 09:58:13;;;;;;;;;10.50;7.50;;;;;;;;5048898;28;45453;-80
2022/01/09 10:00:39;;;;;;;;;11.00;9.67;;;;;;;;5052175;28;45334;-83
2022/01/09 10:03:04;;;;;;;;;48.75;37.00;;;;;;;;5053176;28;45507;-82
2022/01/09 10:05:34;;;;;;;;;65.00;52.67;;;;;;;;5053294;28;45685;-81
2022/01/09 10:08:09;;;;;;;;;35.25;34.50;;;;;;;;5053284;28;45474;-85
2022/01/09 10:10:36;;;;;;;;;9.25;8.50;;;;;;;;5052636;28;45637;-84
2022/01/09 10:13:11;;;;;;;;;14.25;12.50;;;;;;;;5053305;28;46627;-87
2022/01/09 10:15:49;;;;;;;;;32.50;31.00;;;;;;;;5052833;28;45843;-82
2022/01/09 10:18:34;;;;;;;;;45.25;38.00;;;;;;;;5053460;28;45550;-83
2022/01/09 10:21:29;;;;;;;;;119.00;102.25;;;;;;;;5051190;28;45493;-86
2022/01/09 10:23:57;;;;;;;;;42.25;36.50;;;;;;;;5038490;28;45417;-87
2022/01/09 10:26:22;;;;;;;;;52.00;41.25;;;;;;;;5053180;28;46067;-83
2022/01/09 10:28:47;;;;;;;;;8.33;8.00;;;;;;;;5053012;28;45662;-80
2022/01/09 10:31:16;;;;;;;;;27.67;24.00;;;;;;;;5052585;28;45584;-81
2022/01/09 10:33:55;;;;;;;;;13.25;12.75;;;;;;;;5050701;28;47134;-84
2022/01/09 10:36:36;;;;;;;;;50.50;42.50;;;;;;;;5054088;28;45429;-81
2022/01/09 10:39:03;;;;;;;;;17.25;16.50;;;;;;;;5053680;28;45335;-83
2022/01/09 10:41:43;;;;;;;;;17.50;17.25;;;;;;;;5052987;28;45467;-86
2022/01/09 10:44:16;;;;;;;;;16.25;14.25;;;;;;;;5053530;28;45863;-86
2022/01/09 10:46:51;;;;;;;;;15.25;14.75;;;;;;;;5052533;28;45804;-80
2022/01/09 10:49:16;;;;;;;;;16.00;14.75;;;;;;;;5051588;28;45484;-86
2022/01/09 10:51:41;;;;;;;;;5.33;5.00;;;;;;;;5051167;28;45308;-85
2022/01/09 10:54:07;;;;;;;;;3.00;2.00;;;;;;;;5051596;28;48562;-85
2022/01/09 10:56:32;;;;;;;;;0.25;0.25;;;;;;;;5053448;28;45598;-82
2022/01/09 10:58:58;;;;;;;;;13.67;10.33;;;;;;;;5057192;28;45442;-80
2022/01/09 11:01:34;;;;;;;;;2.25;1.75;;;;;;;;5055634;28;45506;-86
2022/01/09 11:04:06;;;;;;;;;3.00;2.00;;;;;;;;5050317;28;48079;-87
2022/01/09 11:06:32;;;;;;;;;1.00;1.00;;;;;;;;5050623;28;46079;-91
2022/01/09 11:08:59;;;;;;;;;1.75;1.50;;;;;;;;5053416;28;45473;-90
2022/01/09 11:11:39;;;;;;;;;3.50;2.00;;;;;;;;5063418;28;45299;-89
2022/01/09 11:14:07;;;;;;;;;3.00;2.00;;;;;;;;5069383;28;45191;-88
2022/01/09 11:16:33;;;;;;;;;12.00;10.00;;;;;;;;5069455;28;45082;-85
2022/01/09 11:19:15;;;;;;;;;4.00;3.75;;;;;;;;5071392;28;44949;-88
2022/01/09 11:21:50;;;;;;;;;2.00;1.00;;;;;;;;5067221;28;45304;-82
2022/01/09 11:24:22;;;;;;;;;3.00;3.00;;;;;;;;5071284;28;45821;-81
2022/01/09 11:26:53;;;;;;;;;1.50;1.00;;;;;;;;5069146;28;45113;-86
2022/01/09 11:29:41;;;;;;;;;33.50;32.50;;;;;;;;5067203;28;45257;-85
2022/01/09 11:32:25;;;;;;;;;6.25;4.50;;;;;;;;5050003;28;44929;-86
2022/01/09 11:34:55;;;;;;;;;77.75;63.50;;;;;;;;5066118;28;47443;-86
2022/01/09 11:37:36;;;;;;;;;43.00;38.00;;;;;;;;5069560;28;45386;-87
2022/01/09 11:40:03;;;;;;;;;1.00;1.00;;;;;;;;5067261;28;44999;-88
2022/01/09 11:42:28;;;;;;;;;51.50;43.00;;;;;;;;5066332;28;45453;-86
2022/01/09 11:44:54;;;;;;;;;6.00;6.00;;;;;;;;5064857;28;45449;-88
2022/01/09 11:47:20;;;;;;;;;23.75;23.00;;;;;;;;5065921;28;45423;-90
2022/01/09 11:49:56;;;;;;;;;7.75;7.00;;;;;;;;5066763;28;45374;-89
2022/01/09 11:52:25;;;;;;;;;25.00;25.00;;;;;;;;5057880;28;45431;-85
2022/01/09 11:54:52;;;;;;;;;49.50;43.50;;;;;;;;5070414;28;46110;-91
2022/01/09 11:57:37;;;;;;;;;11.50;10.00;;;;;;;;5063025;28;45113;-88
2022/01/09 12:00:06;;;;;;;;;91.00;77.25;;;;;;;;5069688;28;44952;-87
2022/01/09 12:02:32;;;;;;;;;10.75;8.75;;;;;;;;5069370;28;45387;-86
2022/01/09 12:05:00;;;;;;;;;3.50;3.25;;;;;;;;5064581;28;45340;-86
2022/01/09 12:07:34;;;;;;;;;88.75;71.50;;;;;;;;5060738;28;45451;-94
2022/01/09 12:10:01;;;;;;;;;89.50;75.00;;;;;;;;5036033;28;45522;-87
2022/01/09 12:12:32;;;;;;;;;34.25;30.75;;;;;;;;5069280;28;45427;-86
2022/01/09 12:17:26;;;;;;;;;3.00;2.75;;;;;;;;5070118;28;45594;-86
2022/01/09 12:20:10;;;;;;;;;3.25;3.25;;;;;;;;5068491;28;45127;-87
2022/01/09 12:22:51;;;;;;;;;3.25;2.75;;;;;;;;5047550;28;45174;-87
2022/01/09 12:25:25;;;;;;;;;6.50;6.50;;;;;;;;5049960;28;46198;-89
2022/01/09 12:27:54;;;;;;;;;8.00;7.50;;;;;;;;5049188;28;45131;-82
2022/01/09 12:30:41;;;;;;;;;6.00;6.00;;;;;;;;5051696;28;45063;-82
2022/01/09 12:33:18;;;;;;;;;6.75;5.50;;;;;;;;5051821;28;45027;-86
2022/01/09 12:35:49;;;;;;;;;6.00;4.50;;;;;;;;5047073;28;47503;-83
2022/01/09 12:38:15;;;;;;;;;6.00;6.00;;;;;;;;5047876;28;45076;-83
2022/01/09 12:40:42;;;;;;;;;5.00;5.00;;;;;;;;5048634;28;45386;-82
2022/01/09 12:43:07;;;;;;;;;3.00;3.00;;;;;;;;5047523;28;45032;-82
2022/01/09 12:45:34;;;;;;;;;5.50;5.00;;;;;;;;5048576;28;45122;-82
2022/01/09 12:48:00;;;;;;;;;1.75;1.75;;;;;;;;5048585;28;45508;-82
2022/01/09 12:50:26;;;;;;;;;8.75;7.00;;;;;;;;5047152;28;45163;-82
2022/01/09 12:52:52;;;;;;;;;6.25;6.00;;;;;;;;5048260;28;45130;-82
2022/01/09 12:55:17;;;;;;;;;9.50;8.50;;;;;;;;5047066;28;47635;-82
2022/01/09 12:57:49;;;;;;;;;7.00;3.67;;;;;;;;5046542;28;45388;-82
2022/01/09 13:00:14;;;;;;;;;4.00;4.00;;;;;;;;5049108;28;45063;-83
2022/01/09 13:02:39;;;;;;;;;66.00;53.67;;;;;;;;5053781;28;45140;-83
2022/01/09 13:05:05;;;;;;;;;9.00;9.00;;;;;;;;5068750;28;45509;-83
2022/01/09 13:07:30;;;;;;;;;58.00;48.00;;;;;;;;5064569;28;45589;-82
2022/01/09 13:09:55;;;;;;;;;51.33;41.00;;;;;;;;5066874;28;45068;-82
2022/01/09 13:12:22;;;;;;;;;23.00;22.33;;;;;;;;5067055;28;45112;-83
2022/01/09 13:14:48;;;;;;;;;8.25;8.00;;;;;;;;5067226;28;47130;-81
2022/01/09 13:17:13;;;;;;;;;11.33;11.00;;;;;;;;5066895;28;45665;-84
2022/01/09 13:19:38;;;;;;;;;10.75;9.00;;;;;;;;5067038;28;45206;-83
2022/01/09 13:22:06;;;;;;;;;81.67;65.67;;;;;;;;5066895;28;44996;-84
2022/01/09 13:24:31;;;;;;;;;59.75;49.75;;;;;;;;5066434;28;47246;-83
2022/01/09 13:27:02;;;;;;;;;12.33;12.33;;;;;;;;5068625;28;45040;-83
2022/01/09 13:29:29;;;;;;;;;20.75;18.50;;;;;;;;5068438;28;45448;-83
2022/01/09 13:31:59;;;;;;;;;16.50;15.25;;;;;;;;5065259;28;45503;-83
2022/01/09 13:34:35;;;;;;;;;23.50;21.50;;;;;;;;5048453;28;45280;-82
2022/01/09 13:37:01;;;;;;;;;34.25;32.00;;;;;;;;5046855;28;45202;-82
2022/01/09 13:39:28;;;;;;;;;29.00;28.50;;;;;;;;5058023;28;45170;-81
2022/01/09 13:41:56;;;;;;;;;25.00;22.25;;;;;;;;5067404;28;45080;-82
2022/01/09 13:44:24;;;;;;;;;54.00;44.25;;;;;;;;5068153;28;45349;-82
2022/01/09 13:47:04;;;;;;;;;33.75;33.25;;;;;;;;5067581;28;45120;-82
2022/01/09 13:49:30;;;;;;;;;54.25;44.50;;;;;;;;5067070;28;45209;-81
2022/01/09 13:51:56;;;;;;;;;18.50;18.25;;;;;;;;5056199;28;45273;-81
2022/01/09 13:54:22;;;;;;;;;38.75;35.25;;;;;;;;5049793;28;46401;-81
2022/01/09 13:57:05;;;;;;;;;22.25;22.25;;;;;;;;5054832;28;45222;-80
2022/01/09 13:59:34;;;;;;;;;68.50;56.00;;;;;;;;5067380;28;45098;-80
2022/01/09 14:01:59;;;;;;;;;24.50;22.00;;;;;;;;5053499;28;45597;-80
2022/01/09 14:04:24;;;;;;;;;49.00;41.50;;;;;;;;5039279;28;47296;-80
2022/01/09 14:06:57;;;;;;;;;68.50;56.00;;;;;;;;5046467;28;45662;-80
2022/01/09 14:09:30;;;;;;;;;26.00;25.00;;;;;;;;5057691;28;45802;-80
2022/01/09 14:11:56;;;;;;;;;20.50;18.00;;;;;;;;5059982;28;45518;-80
2022/01/09 14:14:31;;;;;;;;;15.50;13.25;;;;;;;;5059916;28;45925;-80
2022/01/09 14:16:57;;;;;;;;;14.50;13.75;;;;;;;;5064995;28;45327;-79
2022/01/09 14:19:22;;;;;;;;;69.50;57.75;;;;;;;;5054583;28;45733;-78
2022/01/09 14:21:52;;;;;;;;;29.00;27.00;;;;;;;;5048440;28;45460;-78
2022/01/09 14:24:17;;;;;;;;;35.50;33.50;;;;;;;;5053776;28;47390;-79
2022/01/09 14:26:53;;;;;;;;;26.33;26.00;;;;;;;;5044624;28;45983;-80
2022/01/09 14:29:32;;;;;;;;;22.00;20.75;;;;;;;;5047816;28;45342;-79
2022/01/09 14:31:57;;;;;;;;;26.50;24.25;;;;;;;;5048714;28;45619;-79
2022/01/09 14:34:22;;;;;;;;;26.33;25.33;;;;;;;;5047453;28;47163;-78
2022/01/09 14:36:48;;;;;;;;;9.33;9.33;;;;;;;;5048025;28;45602;-78
2022/01/09 14:39:13;;;;;;;;;16.25;15.50;;;;;;;;5049347;28;45452;-79
2022/01/09 14:41:38;;;;;;;;;16.67;15.33;;;;;;;;5048495;28;45496;-79